sensor_id;sensor_type;location;lat;lon;timestamp;P1;durP1;ratioP1;P2;durP2;ratioP2
24873;SDS011;12945;42.648;23.370;2023-01-15T00:00:38;30.80;;;16.70;;
24873;SDS011;12945;42.648;23.370;2023-01-15T00:03:03;33.22;;;17.05;;
24873;SDS011;12945;42.648;23.370;2023-01-15T00:05:29;33.97;;;16.45;;
24873;SDS011;12945;42.648;23.370;2023-01-15T00:07:54;33.95;;;17.67;;
24873;SDS011;12945;42.648;23.370;2023-01-15T00:10:20;29.40;;;16.48;;
24873;SDS011;12945;42.648;23.370;2023-01-15T00:12:45;33.95;;;16.17;;
24873;SDS011;12945;42.648;23.370;2023-01-15T00:15:11;29.63;;;15.85;;
24873;SDS011;12945;42.648;23.370;2023-01-15T00:17:36;28.17;;;16.65;;
24873;SDS011;12945;42.648;23.370;2023-01-15T00:20:02;33.58;;;16.50;;
24873;SDS011;12945;42.648;23.370;2023-01-15T00:22:28;33.08;;;16.95;;
24873;SDS011;12945;42.648;23.370;2023-01-15T00:24:53;35.22;;;16.75;;
24873;SDS011;12945;42.648;23.370;2023-01-15T00:27:37;28.70;;;15.15;;
24873;SDS011;12945;42.648;23.370;2023-01-15T00:30:03;29.95;;;16.15;;
24873;SDS011;12945;42.648;23.370;2023-01-15T00:32:29;28.08;;;15.27;;
24873;SDS011;12945;42.648;23.370;2023-01-15T00:34:57;28.58;;;15.27;;
24873;SDS011;12945;42.648;23.370;2023-01-15T00:37:23;29.45;;;16.75;;
24873;SDS011;12945;42.648;23.370;2023-01-15T00:39:48;32.85;;;16.80;;
24873;SDS011;12945;42.648;23.370;2023-01-15T00:42:13;29.10;;;16.42;;
24873;SDS011;12945;42.648;23.370;2023-01-15T00:44:40;32.95;;;16.98;;
24873;SDS011;12945;42.648;23.370;2023-01-15T00:47:06;30.73;;;17.05;;
24873;SDS011;12945;42.648;23.370;2023-01-15T00:49:33;31.83;;;16.35;;
24873;SDS011;12945;42.648;23.370;2023-01-15T00:51:58;36.35;;;17.50;;
24873;SDS011;12945;42.648;23.370;2023-01-15T00:54:24;31.45;;;15.95;;
24873;SDS011;12945;42.648;23.370;2023-01-15T00:56:49;32.15;;;16.90;;
24873;SDS011;12945;42.648;23.370;2023-01-15T00:59:14;32.47;;;16.90;;
24873;SDS011;12945;42.648;23.370;2023-01-15T01:01:40;30.55;;;15.73;;
24873;SDS011;12945;42.648;23.370;2023-01-15T01:04:06;33.47;;;18.02;;
24873;SDS011;12945;42.648;23.370;2023-01-15T01:06:31;32.97;;;16.55;;
24873;SDS011;12945;42.648;23.370;2023-01-15T01:08:57;34.00;;;16.98;;
24873;SDS011;12945;42.648;23.370;2023-01-15T01:11:23;33.70;;;17.75;;
24873;SDS011;12945;42.648;23.370;2023-01-15T01:13:50;34.97;;;18.58;;
24873;SDS011;12945;42.648;23.370;2023-01-15T01:18:45;33.88;;;18.58;;
24873;SDS011;12945;42.648;23.370;2023-01-15T01:21:10;38.17;;;19.77;;
24873;SDS011;12945;42.648;23.370;2023-01-15T01:23:36;32.90;;;17.60;;
24873;SDS011;12945;42.648;23.370;2023-01-15T01:26:01;32.92;;;17.55;;
24873;SDS011;12945;42.648;23.370;2023-01-15T01:28:27;37.38;;;19.77;;
24873;SDS011;12945;42.648;23.370;2023-01-15T01:30:52;41.42;;;20.02;;
24873;SDS011;12945;42.648;23.370;2023-01-15T01:33:17;37.92;;;19.92;;
24873;SDS011;12945;42.648;23.370;2023-01-15T01:35:46;38.20;;;19.70;;
24873;SDS011;12945;42.648;23.370;2023-01-15T01:38:15;36.50;;;19.85;;
24873;SDS011;12945;42.648;23.370;2023-01-15T01:40:40;39.67;;;20.00;;
24873;SDS011;12945;42.648;23.370;2023-01-15T01:43:15;37.58;;;18.83;;
24873;SDS011;12945;42.648;23.370;2023-01-15T01:45:46;35.78;;;19.25;;
24873;SDS011;12945;42.648;23.370;2023-01-15T01:48:12;33.88;;;19.05;;
24873;SDS011;12945;42.648;23.370;2023-01-15T01:50:39;37.08;;;19.13;;
24873;SDS011;12945;42.648;23.370;2023-01-15T01:53:07;37.95;;;19.73;;
24873;SDS011;12945;42.648;23.370;2023-01-15T01:55:36;39.95;;;19.50;;
24873;SDS011;12945;42.648;23.370;2023-01-15T01:58:03;37.17;;;20.42;;
24873;SDS011;12945;42.648;23.370;2023-01-15T02:00:31;39.33;;;20.60;;
24873;SDS011;12945;42.648;23.370;2023-01-15T02:02:59;41.92;;;21.20;;
24873;SDS011;12945;42.648;23.370;2023-01-15T02:05:30;48.60;;;21.58;;
24873;SDS011;12945;42.648;23.370;2023-01-15T02:07:57;40.85;;;20.92;;
24873;SDS011;12945;42.648;23.370;2023-01-15T02:10:24;43.15;;;21.10;;
24873;SDS011;12945;42.648;23.370;2023-01-15T02:16:07;43.22;;;20.55;;
24873;SDS011;12945;42.648;23.370;2023-01-15T02:18:39;37.75;;;19.98;;
24873;SDS011;12945;42.648;23.370;2023-01-15T02:21:35;38.55;;;19.60;;
24873;SDS011;12945;42.648;23.370;2023-01-15T02:29:22;47.95;;;20.90;;
24873;SDS011;12945;42.648;23.370;2023-01-15T02:31:58;35.85;;;20.45;;
24873;SDS011;12945;42.648;23.370;2023-01-15T02:34:32;40.63;;;19.92;;
24873;SDS011;12945;42.648;23.370;2023-01-15T02:37:16;39.70;;;20.25;;
24873;SDS011;12945;42.648;23.370;2023-01-15T02:39:46;39.22;;;19.55;;
24873;SDS011;12945;42.648;23.370;2023-01-15T02:42:14;36.63;;;19.50;;
24873;SDS011;12945;42.648;23.370;2023-01-15T02:44:43;38.25;;;20.65;;
24873;SDS011;12945;42.648;23.370;2023-01-15T02:47:12;38.85;;;19.50;;
24873;SDS011;12945;42.648;23.370;2023-01-15T02:49:41;38.42;;;19.90;;
24873;SDS011;12945;42.648;23.370;2023-01-15T02:52:19;42.40;;;20.10;;
24873;SDS011;12945;42.648;23.370;2023-01-15T02:55:07;37.35;;;19.63;;
24873;SDS011;12945;42.648;23.370;2023-01-15T02:57:40;42.10;;;20.65;;
24873;SDS011;12945;42.648;23.370;2023-01-15T03:00:10;35.72;;;18.67;;
24873;SDS011;12945;42.648;23.370;2023-01-15T03:02:40;37.20;;;20.35;;
24873;SDS011;12945;42.648;23.370;2023-01-15T03:05:12;38.17;;;18.63;;
24873;SDS011;12945;42.648;23.370;2023-01-15T03:07:54;32.17;;;17.48;;
24873;SDS011;12945;42.648;23.370;2023-01-15T03:10:37;37.28;;;19.00;;
24873;SDS011;12945;42.648;23.370;2023-01-15T03:13:03;39.13;;;20.05;;
24873;SDS011;12945;42.648;23.370;2023-01-15T03:18:28;33.40;;;17.83;;
24873;SDS011;12945;42.648;23.370;2023-01-15T03:23:27;33.38;;;18.20;;
24873;SDS011;12945;42.648;23.370;2023-01-15T03:25:54;34.85;;;19.73;;
24873;SDS011;12945;42.648;23.370;2023-01-15T03:28:22;37.50;;;19.80;;
24873;SDS011;12945;42.648;23.370;2023-01-15T03:30:50;39.47;;;18.95;;
24873;SDS011;12945;42.648;23.370;2023-01-15T03:33:16;30.30;;;17.80;;
24873;SDS011;12945;42.648;23.370;2023-01-15T03:35:44;36.35;;;20.00;;
24873;SDS011;12945;42.648;23.370;2023-01-15T03:38:11;38.17;;;19.60;;
24873;SDS011;12945;42.648;23.370;2023-01-15T03:40:41;37.60;;;18.50;;
24873;SDS011;12945;42.648;23.370;2023-01-15T03:43:14;33.72;;;17.35;;
24873;SDS011;12945;42.648;23.370;2023-01-15T03:46:04;36.08;;;18.38;;
24873;SDS011;12945;42.648;23.370;2023-01-15T03:51:22;35.08;;;18.20;;
24873;SDS011;12945;42.648;23.370;2023-01-15T03:53:54;37.03;;;17.88;;
24873;SDS011;12945;42.648;23.370;2023-01-15T03:56:31;28.65;;;17.20;;
24873;SDS011;12945;42.648;23.370;2023-01-15T04:04:05;39.15;;;17.02;;
24873;SDS011;12945;42.648;23.370;2023-01-15T04:06:32;30.38;;;17.00;;
24873;SDS011;12945;42.648;23.370;2023-01-15T04:09:00;33.17;;;18.05;;
24873;SDS011;12945;42.648;23.370;2023-01-15T04:11:30;33.67;;;17.60;;
24873;SDS011;12945;42.648;23.370;2023-01-15T04:13:55;36.95;;;16.48;;
24873;SDS011;12945;42.648;23.370;2023-01-15T04:16:24;27.92;;;15.35;;
24873;SDS011;12945;42.648;23.370;2023-01-15T04:18:52;30.25;;;15.27;;
24873;SDS011;12945;42.648;23.370;2023-01-15T04:21:18;28.25;;;15.55;;
24873;SDS011;12945;42.648;23.370;2023-01-15T04:23:43;29.27;;;15.65;;
24873;SDS011;12945;42.648;23.370;2023-01-15T04:26:10;27.85;;;15.00;;
24873;SDS011;12945;42.648;23.370;2023-01-15T04:28:36;26.77;;;14.80;;
24873;SDS011;12945;42.648;23.370;2023-01-15T04:31:01;29.38;;;15.02;;
24873;SDS011;12945;42.648;23.370;2023-01-15T04:33:27;30.20;;;15.57;;
24873;SDS011;12945;42.648;23.370;2023-01-15T04:35:52;23.33;;;13.57;;
24873;SDS011;12945;42.648;23.370;2023-01-15T04:38:18;28.42;;;15.05;;
24873;SDS011;12945;42.648;23.370;2023-01-15T04:40:43;28.30;;;14.77;;
24873;SDS011;12945;42.648;23.370;2023-01-15T04:43:27;26.08;;;14.30;;
24873;SDS011;12945;42.648;23.370;2023-01-15T04:46:11;28.42;;;14.27;;
24873;SDS011;12945;42.648;23.370;2023-01-15T04:48:40;25.80;;;14.18;;
24873;SDS011;12945;42.648;23.370;2023-01-15T04:51:06;29.23;;;15.55;;
24873;SDS011;12945;42.648;23.370;2023-01-15T04:53:32;30.20;;;15.65;;
24873;SDS011;12945;42.648;23.370;2023-01-15T04:56:01;27.35;;;14.52;;
24873;SDS011;12945;42.648;23.370;2023-01-15T04:58:30;27.80;;;14.57;;
24873;SDS011;12945;42.648;23.370;2023-01-15T05:00:56;28.80;;;14.85;;
24873;SDS011;12945;42.648;23.370;2023-01-15T05:03:24;27.83;;;14.35;;
24873;SDS011;12945;42.648;23.370;2023-01-15T05:05:50;31.15;;;17.67;;
24873;SDS011;12945;42.648;23.370;2023-01-15T05:08:16;28.92;;;16.58;;
24873;SDS011;12945;42.648;23.370;2023-01-15T05:10:41;31.92;;;17.08;;
24873;SDS011;12945;42.648;23.370;2023-01-15T05:13:07;32.30;;;16.67;;
24873;SDS011;12945;42.648;23.370;2023-01-15T05:15:32;38.78;;;18.83;;
24873;SDS011;12945;42.648;23.370;2023-01-15T05:17:57;38.55;;;18.20;;
24873;SDS011;12945;42.648;23.370;2023-01-15T05:20:23;37.60;;;18.23;;
24873;SDS011;12945;42.648;23.370;2023-01-15T05:22:48;37.33;;;19.67;;
24873;SDS011;12945;42.648;23.370;2023-01-15T05:25:14;37.13;;;19.38;;
24873;SDS011;12945;42.648;23.370;2023-01-15T05:27:39;40.58;;;20.23;;
24873;SDS011;12945;42.648;23.370;2023-01-15T05:30:07;38.17;;;19.45;;
24873;SDS011;12945;42.648;23.370;2023-01-15T05:32:33;40.08;;;19.25;;
24873;SDS011;12945;42.648;23.370;2023-01-15T05:34:58;38.63;;;19.35;;
24873;SDS011;12945;42.648;23.370;2023-01-15T05:37:24;37.28;;;19.90;;
24873;SDS011;12945;42.648;23.370;2023-01-15T05:39:50;42.20;;;19.88;;
24873;SDS011;12945;42.648;23.370;2023-01-15T05:42:15;35.55;;;18.75;;
24873;SDS011;12945;42.648;23.370;2023-01-15T05:44:41;35.28;;;18.33;;
24873;SDS011;12945;42.648;23.370;2023-01-15T05:47:06;43.17;;;19.23;;
24873;SDS011;12945;42.648;23.370;2023-01-15T05:49:33;37.25;;;19.25;;
24873;SDS011;12945;42.648;23.370;2023-01-15T05:51:59;38.95;;;20.15;;
24873;SDS011;12945;42.648;23.370;2023-01-15T05:54:29;38.83;;;20.95;;
24873;SDS011;12945;42.648;23.370;2023-01-15T05:56:56;39.97;;;19.95;;
24873;SDS011;12945;42.648;23.370;2023-01-15T05:59:23;35.80;;;18.88;;
24873;SDS011;12945;42.648;23.370;2023-01-15T06:01:50;43.45;;;21.75;;
24873;SDS011;12945;42.648;23.370;2023-01-15T06:04:16;42.83;;;22.05;;
24873;SDS011;12945;42.648;23.370;2023-01-15T06:06:45;44.88;;;21.13;;
24873;SDS011;12945;42.648;23.370;2023-01-15T06:09:11;45.30;;;22.95;;
24873;SDS011;12945;42.648;23.370;2023-01-15T06:11:36;52.00;;;26.58;;
24873;SDS011;12945;42.648;23.370;2023-01-15T06:14:02;51.65;;;27.10;;
24873;SDS011;12945;42.648;23.370;2023-01-15T06:16:28;55.13;;;28.17;;
24873;SDS011;12945;42.648;23.370;2023-01-15T06:18:53;52.72;;;27.67;;
24873;SDS011;12945;42.648;23.370;2023-01-15T06:21:19;48.45;;;26.95;;
24873;SDS011;12945;42.648;23.370;2023-01-15T06:23:45;50.95;;;28.52;;
24873;SDS011;12945;42.648;23.370;2023-01-15T06:26:14;48.80;;;26.92;;
24873;SDS011;12945;42.648;23.370;2023-01-15T06:28:42;46.63;;;25.75;;
24873;SDS011;12945;42.648;23.370;2023-01-15T06:31:09;51.80;;;26.05;;
24873;SDS011;12945;42.648;23.370;2023-01-15T06:33:36;48.78;;;26.15;;
24873;SDS011;12945;42.648;23.370;2023-01-15T06:36:05;49.60;;;25.08;;
24873;SDS011;12945;42.648;23.370;2023-01-15T06:38:32;41.72;;;23.65;;
24873;SDS011;12945;42.648;23.370;2023-01-15T06:40:59;39.47;;;21.27;;
24873;SDS011;12945;42.648;23.370;2023-01-15T06:43:26;41.10;;;20.73;;
24873;SDS011;12945;42.648;23.370;2023-01-15T06:46:10;35.10;;;18.65;;
24873;SDS011;12945;42.648;23.370;2023-01-15T06:48:54;42.22;;;18.92;;
24873;SDS011;12945;42.648;23.370;2023-01-15T06:51:19;38.47;;;18.63;;
24873;SDS011;12945;42.648;23.370;2023-01-15T06:53:46;38.63;;;18.30;;
24873;SDS011;12945;42.648;23.370;2023-01-15T06:56:12;34.35;;;19.30;;
24873;SDS011;12945;42.648;23.370;2023-01-15T06:58:39;41.83;;;20.08;;
24873;SDS011;12945;42.648;23.370;2023-01-15T07:01:06;38.45;;;18.67;;
24873;SDS011;12945;42.648;23.370;2023-01-15T07:06:07;30.52;;;15.07;;
24873;SDS011;12945;42.648;23.370;2023-01-15T07:08:37;36.63;;;17.48;;
24873;SDS011;12945;42.648;23.370;2023-01-15T07:11:08;37.75;;;18.63;;
24873;SDS011;12945;42.648;23.370;2023-01-15T07:13:33;38.53;;;19.25;;
24873;SDS011;12945;42.648;23.370;2023-01-15T07:16:00;37.70;;;19.00;;
24873;SDS011;12945;42.648;23.370;2023-01-15T07:18:27;32.33;;;17.45;;
24873;SDS011;12945;42.648;23.370;2023-01-15T07:20:55;33.55;;;17.27;;
24873;SDS011;12945;42.648;23.370;2023-01-15T07:23:21;37.33;;;18.38;;
24873;SDS011;12945;42.648;23.370;2023-01-15T07:25:51;35.17;;;18.33;;
24873;SDS011;12945;42.648;23.370;2023-01-15T07:28:17;36.40;;;19.02;;
24873;SDS011;12945;42.648;23.370;2023-01-15T07:30:43;29.30;;;16.08;;
24873;SDS011;12945;42.648;23.370;2023-01-15T07:33:08;33.88;;;18.50;;
24873;SDS011;12945;42.648;23.370;2023-01-15T07:35:34;36.92;;;18.73;;
24873;SDS011;12945;42.648;23.370;2023-01-15T07:38:01;40.80;;;18.63;;
24873;SDS011;12945;42.648;23.370;2023-01-15T07:40:27;35.67;;;18.48;;
24873;SDS011;12945;42.648;23.370;2023-01-15T07:42:52;35.10;;;19.75;;
24873;SDS011;12945;42.648;23.370;2023-01-15T07:45:37;32.00;;;14.70;;
24873;SDS011;12945;42.648;23.370;2023-01-15T07:48:22;25.33;;;13.95;;
24873;SDS011;12945;42.648;23.370;2023-01-15T07:51:08;28.73;;;16.17;;
24873;SDS011;12945;42.648;23.370;2023-01-15T07:53:33;34.97;;;17.65;;
24873;SDS011;12945;42.648;23.370;2023-01-15T07:55:59;33.85;;;16.67;;
24873;SDS011;12945;42.648;23.370;2023-01-15T07:58:24;30.95;;;16.98;;
24873;SDS011;12945;42.648;23.370;2023-01-15T08:00:50;29.15;;;15.82;;
24873;SDS011;12945;42.648;23.370;2023-01-15T08:03:15;27.73;;;14.82;;
24873;SDS011;12945;42.648;23.370;2023-01-15T08:05:41;23.90;;;13.13;;
24873;SDS011;12945;42.648;23.370;2023-01-15T08:08:12;23.80;;;12.77;;
24873;SDS011;12945;42.648;23.370;2023-01-15T08:10:39;26.92;;;14.98;;
24873;SDS011;12945;42.648;23.370;2023-01-15T08:13:24;25.13;;;14.27;;
24873;SDS011;12945;42.648;23.370;2023-01-15T08:16:08;26.73;;;14.13;;
24873;SDS011;12945;42.648;23.370;2023-01-15T08:18:35;24.73;;;14.05;;
24873;SDS011;12945;42.648;23.370;2023-01-15T08:21:01;27.65;;;14.65;;
24873;SDS011;12945;42.648;23.370;2023-01-15T08:23:26;26.92;;;15.18;;
24873;SDS011;12945;42.648;23.370;2023-01-15T08:25:52;27.80;;;15.50;;
24873;SDS011;12945;42.648;23.370;2023-01-15T08:28:17;27.35;;;15.40;;
24873;SDS011;12945;42.648;23.370;2023-01-15T08:30:42;29.38;;;15.43;;
24873;SDS011;12945;42.648;23.370;2023-01-15T08:33:08;28.27;;;15.82;;
24873;SDS011;12945;42.648;23.370;2023-01-15T08:35:33;41.13;;;18.00;;
24873;SDS011;12945;42.648;23.370;2023-01-15T08:38:02;40.45;;;19.85;;
24873;SDS011;12945;42.648;23.370;2023-01-15T08:40:31;42.33;;;19.90;;
24873;SDS011;12945;42.648;23.370;2023-01-15T08:42:56;40.97;;;21.48;;
24873;SDS011;12945;42.648;23.370;2023-01-15T08:45:22;44.38;;;22.65;;
24873;SDS011;12945;42.648;23.370;2023-01-15T08:47:47;46.13;;;22.85;;
24873;SDS011;12945;42.648;23.370;2023-01-15T08:50:13;38.30;;;20.80;;
24873;SDS011;12945;42.648;23.370;2023-01-15T08:52:38;41.03;;;20.35;;
24873;SDS011;12945;42.648;23.370;2023-01-15T08:55:04;33.95;;;20.20;;
24873;SDS011;12945;42.648;23.370;2023-01-15T08:57:30;39.13;;;21.45;;
24873;SDS011;12945;42.648;23.370;2023-01-15T08:59:56;38.70;;;22.45;;
24873;SDS011;12945;42.648;23.370;2023-01-15T09:02:21;42.67;;;22.88;;
24873;SDS011;12945;42.648;23.370;2023-01-15T09:04:47;49.17;;;22.80;;
24873;SDS011;12945;42.648;23.370;2023-01-15T09:07:12;40.55;;;22.02;;
24873;SDS011;12945;42.648;23.370;2023-01-15T09:09:37;37.40;;;20.40;;
24873;SDS011;12945;42.648;23.370;2023-01-15T09:12:03;33.58;;;16.42;;
24873;SDS011;12945;42.648;23.370;2023-01-15T09:14:28;36.80;;;18.58;;
24873;SDS011;12945;42.648;23.370;2023-01-15T09:16:54;37.72;;;19.92;;
24873;SDS011;12945;42.648;23.370;2023-01-15T09:19:19;32.95;;;17.48;;
24873;SDS011;12945;42.648;23.370;2023-01-15T09:21:45;31.85;;;17.75;;
24873;SDS011;12945;42.648;23.370;2023-01-15T09:24:11;27.42;;;15.32;;
24873;SDS011;12945;42.648;23.370;2023-01-15T09:26:37;28.30;;;15.65;;
24873;SDS011;12945;42.648;23.370;2023-01-15T09:29:04;30.92;;;16.98;;
24873;SDS011;12945;42.648;23.370;2023-01-15T09:31:30;31.85;;;16.88;;
24873;SDS011;12945;42.648;23.370;2023-01-15T09:33:56;31.70;;;18.42;;
24873;SDS011;12945;42.648;23.370;2023-01-15T09:36:24;29.38;;;16.77;;
24873;SDS011;12945;42.648;23.370;2023-01-15T09:38:52;28.42;;;15.98;;
24873;SDS011;12945;42.648;23.370;2023-01-15T09:41:19;34.33;;;17.33;;
24873;SDS011;12945;42.648;23.370;2023-01-15T09:47:06;33.25;;;18.13;;
24873;SDS011;12945;42.648;23.370;2023-01-15T09:50:15;35.20;;;19.08;;
24873;SDS011;12945;42.648;23.370;2023-01-15T09:53:35;39.53;;;21.23;;
24873;SDS011;12945;42.648;23.370;2023-01-15T09:56:05;45.55;;;20.27;;
24873;SDS011;12945;42.648;23.370;2023-01-15T09:58:48;37.67;;;20.73;;
24873;SDS011;12945;42.648;23.370;2023-01-15T10:01:17;42.22;;;21.52;;
24873;SDS011;12945;42.648;23.370;2023-01-15T10:06:47;38.60;;;20.20;;
24873;SDS011;12945;42.648;23.370;2023-01-15T10:09:24;40.85;;;21.35;;
24873;SDS011;12945;42.648;23.370;2023-01-15T10:12:00;38.92;;;22.48;;
24873;SDS011;12945;42.648;23.370;2023-01-15T10:18:01;45.08;;;21.50;;
24873;SDS011;12945;42.648;23.370;2023-01-15T10:37:02;30.13;;;16.27;;
24873;SDS011;12945;42.648;23.370;2023-01-15T10:45:24;29.75;;;15.73;;
24873;SDS011;12945;42.648;23.370;2023-01-15T10:50:41;34.53;;;16.35;;
24873;SDS011;12945;42.648;23.370;2023-01-15T10:53:13;36.42;;;18.70;;
24873;SDS011;12945;42.648;23.370;2023-01-15T10:55:46;30.40;;;16.42;;
24873;SDS011;12945;42.648;23.370;2023-01-15T10:58:24;28.98;;;16.85;;
24873;SDS011;12945;42.648;23.370;2023-01-15T11:01:03;32.38;;;17.95;;
24873;SDS011;12945;42.648;23.370;2023-01-15T11:03:37;29.77;;;16.92;;
24873;SDS011;12945;42.648;23.370;2023-01-15T11:06:05;31.92;;;16.17;;
24873;SDS011;12945;42.648;23.370;2023-01-15T11:08:36;28.33;;;16.65;;
24873;SDS011;12945;42.648;23.370;2023-01-15T11:14:09;29.70;;;16.90;;
24873;SDS011;12945;42.648;23.370;2023-01-15T11:16:53;27.77;;;16.15;;
24873;SDS011;12945;42.648;23.370;2023-01-15T11:19:33;28.98;;;14.85;;
24873;SDS011;12945;42.648;23.370;2023-01-15T11:22:04;27.23;;;14.55;;
24873;SDS011;12945;42.648;23.370;2023-01-15T11:24:34;23.48;;;13.27;;
24873;SDS011;12945;42.648;23.370;2023-01-15T11:27:01;23.08;;;13.45;;
24873;SDS011;12945;42.648;23.370;2023-01-15T11:29:35;23.67;;;13.82;;
24873;SDS011;12945;42.648;23.370;2023-01-15T11:32:01;24.05;;;13.77;;
24873;SDS011;12945;42.648;23.370;2023-01-15T11:34:27;20.92;;;12.77;;
24873;SDS011;12945;42.648;23.370;2023-01-15T11:37:05;21.05;;;13.07;;
24873;SDS011;12945;42.648;23.370;2023-01-15T11:39:30;23.23;;;13.85;;
24873;SDS011;12945;42.648;23.370;2023-01-15T11:41:57;22.42;;;13.93;;
24873;SDS011;12945;42.648;23.370;2023-01-15T11:44:49;23.45;;;14.05;;
24873;SDS011;12945;42.648;23.370;2023-01-15T11:47:50;21.95;;;13.45;;
24873;SDS011;12945;42.648;23.370;2023-01-15T11:50:37;18.05;;;11.20;;
24873;SDS011;12945;42.648;23.370;2023-01-15T11:53:15;17.77;;;10.73;;
24873;SDS011;12945;42.648;23.370;2023-01-15T11:58:25;18.98;;;10.65;;
24873;SDS011;12945;42.648;23.370;2023-01-15T12:00:53;16.55;;;10.77;;
24873;SDS011;12945;42.648;23.370;2023-01-15T12:03:21;14.50;;;9.82;;
24873;SDS011;12945;42.648;23.370;2023-01-15T12:06:09;17.00;;;10.52;;
24873;SDS011;12945;42.648;23.370;2023-01-15T12:19:27;17.15;;;10.55;;
24873;SDS011;12945;42.648;23.370;2023-01-15T12:27:07;15.93;;;9.32;;
24873;SDS011;12945;42.648;23.370;2023-01-15T12:29:49;13.40;;;9.63;;
24873;SDS011;12945;42.648;23.370;2023-01-15T12:32:17;16.63;;;9.80;;
24873;SDS011;12945;42.648;23.370;2023-01-15T12:34:48;18.25;;;10.65;;
24873;SDS011;12945;42.648;23.370;2023-01-15T12:37:16;16.35;;;10.45;;
24873;SDS011;12945;42.648;23.370;2023-01-15T12:42:26;11.25;;;8.48;;
24873;SDS011;12945;42.648;23.370;2023-01-15T12:45:16;12.50;;;8.70;;
24873;SDS011;12945;42.648;23.370;2023-01-15T12:47:48;13.40;;;9.13;;
24873;SDS011;12945;42.648;23.370;2023-01-15T12:52:45;12.32;;;8.80;;
24873;SDS011;12945;42.648;23.370;2023-01-15T12:55:18;14.88;;;9.50;;
24873;SDS011;12945;42.648;23.370;2023-01-15T12:57:52;13.45;;;8.82;;
24873;SDS011;12945;42.648;23.370;2023-01-15T13:00:33;13.15;;;8.65;;
24873;SDS011;12945;42.648;23.370;2023-01-15T13:03:22;17.85;;;9.95;;
24873;SDS011;12945;42.648;23.370;2023-01-15T13:05:52;13.88;;;9.75;;
24873;SDS011;12945;42.648;23.370;2023-01-15T13:11:03;14.88;;;9.80;;
24873;SDS011;12945;42.648;23.370;2023-01-15T13:13:36;15.10;;;9.52;;
24873;SDS011;12945;42.648;23.370;2023-01-15T13:21:28;14.00;;;9.55;;
24873;SDS011;12945;42.648;23.370;2023-01-15T13:29:33;21.20;;;12.20;;
24873;SDS011;12945;42.648;23.370;2023-01-15T13:32:24;17.17;;;11.30;;
24873;SDS011;12945;42.648;23.370;2023-01-15T13:34:58;18.15;;;11.63;;
24873;SDS011;12945;42.648;23.370;2023-01-15T13:37:40;18.60;;;11.88;;
24873;SDS011;12945;42.648;23.370;2023-01-15T13:42:45;14.80;;;10.18;;
24873;SDS011;12945;42.648;23.370;2023-01-15T13:47:37;15.45;;;9.70;;
24873;SDS011;12945;42.648;23.370;2023-01-15T13:50:11;13.93;;;10.05;;
24873;SDS011;12945;42.648;23.370;2023-01-15T13:52:39;18.98;;;10.23;;
24873;SDS011;12945;42.648;23.370;2023-01-15T13:57:40;16.20;;;10.40;;
24873;SDS011;12945;42.648;23.370;2023-01-15T14:00:29;13.60;;;8.98;;
24873;SDS011;12945;42.648;23.370;2023-01-15T14:02:55;16.33;;;10.13;;
24873;SDS011;12945;42.648;23.370;2023-01-15T14:05:24;14.77;;;9.63;;
24873;SDS011;12945;42.648;23.370;2023-01-15T14:07:50;16.27;;;10.18;;
24873;SDS011;12945;42.648;23.370;2023-01-15T14:12:48;16.25;;;10.57;;
24873;SDS011;12945;42.648;23.370;2023-01-15T14:18:12;14.48;;;9.93;;
24873;SDS011;12945;42.648;23.370;2023-01-15T14:26:40;16.20;;;9.52;;
24873;SDS011;12945;42.648;23.370;2023-01-15T14:29:32;19.58;;;10.23;;
24873;SDS011;12945;42.648;23.370;2023-01-15T14:32:08;17.13;;;10.93;;
24873;SDS011;12945;42.648;23.370;2023-01-15T14:34:35;15.52;;;10.48;;
24873;SDS011;12945;42.648;23.370;2023-01-15T14:39:51;20.25;;;12.85;;
24873;SDS011;12945;42.648;23.370;2023-01-15T14:47:47;23.58;;;13.07;;
24873;SDS011;12945;42.648;23.370;2023-01-15T14:53:04;23.98;;;13.48;;
24873;SDS011;12945;42.648;23.370;2023-01-15T14:55:30;22.73;;;14.05;;
24873;SDS011;12945;42.648;23.370;2023-01-15T14:57:58;24.33;;;13.80;;
24873;SDS011;12945;42.648;23.370;2023-01-15T15:00:25;25.48;;;14.18;;
24873;SDS011;12945;42.648;23.370;2023-01-15T15:02:53;23.58;;;14.00;;
24873;SDS011;12945;42.648;23.370;2023-01-15T15:05:19;25.55;;;15.02;;
24873;SDS011;12945;42.648;23.370;2023-01-15T15:07:46;24.52;;;14.27;;
24873;SDS011;12945;42.648;23.370;2023-01-15T15:22:52;27.92;;;14.35;;
24873;SDS011;12945;42.648;23.370;2023-01-15T15:25:20;24.58;;;14.73;;
24873;SDS011;12945;42.648;23.370;2023-01-15T15:27:46;24.85;;;15.18;;
24873;SDS011;12945;42.648;23.370;2023-01-15T15:30:11;27.25;;;14.55;;
24873;SDS011;12945;42.648;23.370;2023-01-15T15:32:39;25.67;;;14.98;;
24873;SDS011;12945;42.648;23.370;2023-01-15T15:35:22;25.35;;;14.57;;
24873;SDS011;12945;42.648;23.370;2023-01-15T15:37:49;25.92;;;14.60;;
24873;SDS011;12945;42.648;23.370;2023-01-15T15:40:18;28.40;;;15.27;;
24873;SDS011;12945;42.648;23.370;2023-01-15T15:42:59;29.63;;;17.50;;
24873;SDS011;12945;42.648;23.370;2023-01-15T15:45:54;30.60;;;15.87;;
24873;SDS011;12945;42.648;23.370;2023-01-15T15:48:38;30.77;;;16.52;;
24873;SDS011;12945;42.648;23.370;2023-01-15T15:53:50;26.40;;;16.08;;
24873;SDS011;12945;42.648;23.370;2023-01-15T15:56:15;32.50;;;17.20;;
24873;SDS011;12945;42.648;23.370;2023-01-15T15:58:41;31.52;;;17.45;;
24873;SDS011;12945;42.648;23.370;2023-01-15T16:01:10;36.33;;;18.35;;
24873;SDS011;12945;42.648;23.370;2023-01-15T16:03:43;33.53;;;17.63;;
24873;SDS011;12945;42.648;23.370;2023-01-15T16:06:16;33.03;;;18.90;;
24873;SDS011;12945;42.648;23.370;2023-01-15T16:08:42;41.35;;;19.10;;
24873;SDS011;12945;42.648;23.370;2023-01-15T16:11:15;39.28;;;19.73;;
24873;SDS011;12945;42.648;23.370;2023-01-15T16:13:42;43.33;;;18.65;;
24873;SDS011;12945;42.648;23.370;2023-01-15T16:16:08;41.38;;;21.23;;
24873;SDS011;12945;42.648;23.370;2023-01-15T16:18:38;40.65;;;20.67;;
24873;SDS011;12945;42.648;23.370;2023-01-15T16:21:09;36.42;;;20.35;;
24873;SDS011;12945;42.648;23.370;2023-01-15T16:23:34;43.45;;;21.60;;
24873;SDS011;12945;42.648;23.370;2023-01-15T16:26:05;42.75;;;21.52;;
24873;SDS011;12945;42.648;23.370;2023-01-15T16:31:03;48.08;;;23.00;;
24873;SDS011;12945;42.648;23.370;2023-01-15T16:33:29;44.85;;;23.98;;
24873;SDS011;12945;42.648;23.370;2023-01-15T16:35:55;43.53;;;23.45;;
24873;SDS011;12945;42.648;23.370;2023-01-15T16:38:21;50.05;;;23.52;;
24873;SDS011;12945;42.648;23.370;2023-01-15T16:40:47;45.58;;;24.13;;
24873;SDS011;12945;42.648;23.370;2023-01-15T16:43:14;49.63;;;24.65;;
24873;SDS011;12945;42.648;23.370;2023-01-15T16:50:50;49.13;;;24.08;;
24873;SDS011;12945;42.648;23.370;2023-01-15T16:55:59;40.17;;;21.90;;
24873;SDS011;12945;42.648;23.370;2023-01-15T17:00:58;43.90;;;21.00;;
24873;SDS011;12945;42.648;23.370;2023-01-15T17:03:24;45.15;;;21.58;;